Time;durP1;ratioP1;P1;durP2;ratioP2;P2;SDS_P1;SDS_P2;PMS_P1;PMS_P2;Temp;Humidity;BMP_temperature;BMP_pressure;BME280_temperature;BME280_humidity;BME280_pressure;Samples;Min_cycle;Max_cycle;Signal;HPM_P1;HPM_P2
2021/12/21 00:01:47;;;;;;;3.30;2.90;;;;;;;;;;7331361;19;162365;-15
2021/12/21 00:04:21;;;;;;;3.05;2.85;;;;;;;;;;7331368;19;153956;-16
2021/12/21 00:06:52;;;;;;;3.13;2.90;;;;;;;;;;7337114;19;153553;-19
2021/12/21 00:09:23;;;;;;;2.88;2.67;;;;;;;;;;7338874;19;161984;-15
2021/12/21 00:11:58;;;;;;;2.90;2.70;;;;;;;;;;7335168;19;162452;-15
2021/12/21 00:14:44;;;;;;;2.75;2.65;;;;;;;;;;7333059;19;153980;-15
2021/12/21 00:17:30;;;;;;;3.20;2.90;;;;;;;;;;7335372;19;153519;-17
2021/12/21 00:20:29;;;;;;;2.78;2.58;;;;;;;;;;7335442;19;161835;-16
2021/12/21 00:23:32;;;;;;;2.90;2.70;;;;;;;;;;7332330;19;162679;-15
2021/12/21 00:26:11;;;;;;;3.00;2.80;;;;;;;;;;7332688;19;153692;-15
2021/12/21 00:28:53;;;;;;;4.32;3.17;;;;;;;;;;7332717;19;153478;-16
2021/12/21 00:31:26;;;;;;;2.55;2.45;;;;;;;;;;7334954;19;161807;-15
2021/12/21 07:34:19;;;;;;;57.10;41.55;;;;;;;;;;7368270;19;132734;-16
2021/12/21 07:36:54;;;;;;;49.67;35.97;;;;;;;;;;7365998;19;153039;-16
2021/12/21 07:39:35;;;;;;;45.08;32.67;;;;;;;;;;7360982;19;161819;-15
2021/12/21 07:42:19;;;;;;;33.50;25.30;;;;;;;;;;7361470;19;163224;-15
2021/12/21 07:44:51;;;;;;;36.88;25.50;;;;;;;;;;7364945;19;153882;-15
2021/12/21 07:47:23;;;;;;;35.77;26.27;;;;;;;;;;7364833;19;153780;-16
2021/12/21 07:49:57;;;;;;;41.75;27.08;;;;;;;;;;7364552;19;161958;-15
2021/12/21 07:52:29;;;;;;;37.28;25.65;;;;;;;;;;7364137;19;163680;-15
2021/12/21 07:55:00;;;;;;;37.13;25.92;;;;;;;;;;7364667;19;154259;-15
2021/12/21 07:57:32;;;;;;;33.30;24.00;;;;;;;;;;7364466;19;153349;-15
2021/12/21 08:00:04;;;;;;;34.67;25.23;;;;;;;;;;7363902;19;161920;-16
2021/12/21 08:02:42;;;;;;;34.10;25.00;;;;;;;;;;7362998;19;162341;-15
2021/12/21 08:05:17;;;;;;;35.65;23.50;;;;;;;;;;7363147;19;154128;-15
2021/12/21 08:07:54;;;;;;;30.98;23.55;;;;;;;;;;7364179;19;153754;-15
2021/12/21 08:10:40;;;;;;;32.28;23.83;;;;;;;;;;7363790;19;161877;-16
2021/12/21 08:13:12;;;;;;;31.73;22.20;;;;;;;;;;7363642;19;162417;-20
2021/12/21 08:15:43;;;;;;;29.95;22.83;;;;;;;;;;7364006;19;154017;-15
2021/12/21 08:18:15;;;;;;;31.45;21.73;;;;;;;;;;7363686;19;153729;-14
2021/12/21 08:20:48;;;;;;;30.15;22.33;;;;;;;;;;7363425;19;161897;-15
2021/12/21 08:23:20;;;;;;;29.67;21.33;;;;;;;;;;7361990;19;162386;-15
2021/12/21 08:25:52;;;;;;;30.17;21.65;;;;;;;;;;7363780;19;154152;-16
2021/12/21 08:28:24;;;;;;;25.85;21.17;;;;;;;;;;7363630;19;153745;-15
2021/12/21 08:30:55;;;;;;;24.88;20.30;;;;;;;;;;7361917;19;161846;-15
2021/12/21 08:33:27;;;;;;;26.42;20.50;;;;;;;;;;7353747;19;162433;-14
2021/12/21 08:36:01;;;;;;;26.23;19.27;;;;;;;;;;7334665;19;153911;-14
2021/12/21 08:38:36;;;;;;;26.98;19.48;;;;;;;;;;7334504;19;153630;-15
2021/12/21 08:41:07;;;;;;;25.73;18.88;;;;;;;;;;7334323;19;161850;-15
2021/12/21 08:43:39;;;;;;;25.85;19.90;;;;;;;;;;7332448;19;162223;-16
2021/12/21 08:46:10;;;;;;;20.38;17.73;;;;;;;;;;7334279;19;153844;-16
2021/12/21 08:48:41;;;;;;;24.63;17.63;;;;;;;;;;7332959;19;153695;-16
2021/12/21 08:51:15;;;;;;;24.08;18.75;;;;;;;;;;7333937;19;161991;-16
2021/12/21 08:53:47;;;;;;;24.33;19.00;;;;;;;;;;7333763;19;162439;-15
2021/12/21 08:56:18;;;;;;;22.67;18.38;;;;;;;;;;7334050;19;154091;-15
2021/12/21 08:58:49;;;;;;;23.63;18.27;;;;;;;;;;7334066;19;153693;-16
2021/12/21 09:01:20;;;;;;;23.77;17.95;;;;;;;;;;7333460;19;161782;-15
2021/12/21 09:03:53;;;;;;;22.25;17.42;;;;;;;;;;7331836;19;162550;-16
2021/12/21 09:06:30;;;;;;;19.93;16.83;;;;;;;;;;7332699;19;153903;-15
2021/12/21 09:09:01;;;;;;;17.90;15.75;;;;;;;;;;7333466;19;153577;-16
2021/12/21 09:11:32;;;;;;;19.70;16.60;;;;;;;;;;7333191;19;161657;-16
2021/12/21 09:14:03;;;;;;;18.75;16.30;;;;;;;;;;7332044;19;162498;-15
2021/12/21 09:16:35;;;;;;;17.92;15.98;;;;;;;;;;7333496;19;154143;-15
2021/12/21 09:19:06;;;;;;;20.23;16.30;;;;;;;;;;7333371;19;153783;-15
2021/12/21 09:21:40;;;;;;;21.10;16.92;;;;;;;;;;7332824;19;161874;-15
2021/12/21 09:24:13;;;;;;;21.35;15.85;;;;;;;;;;7331205;19;162701;-15
2021/12/21 09:26:45;;;;;;;18.92;15.35;;;;;;;;;;7333131;19;153967;-15
2021/12/21 09:29:16;;;;;;;17.80;15.48;;;;;;;;;;7332905;19;153613;-15
2021/12/21 09:31:47;;;;;;;18.80;15.05;;;;;;;;;;7332552;19;162099;-15
2021/12/21 09:34:18;;;;;;;19.70;15.02;;;;;;;;;;7332474;19;162734;-16
2021/12/21 09:36:53;;;;;;;17.48;14.27;;;;;;;;;;7332942;19;153707;-16
2021/12/21 09:39:24;;;;;;;17.13;14.55;;;;;;;;;;7332741;19;153703;-16
2021/12/21 09:41:56;;;;;;;18.67;15.13;;;;;;;;;;7332280;19;161804;-14
2021/12/21 09:44:29;;;;;;;17.88;14.40;;;;;;;;;;7330532;19;163171;-15
2021/12/21 09:47:00;;;;;;;;;;;;;;;;;;7330761;19;153916;-15
2021/12/21 09:49:31;;;;;;;17.25;14.07;;;;;;;;;;7332538;19;153561;-15
2021/12/21 09:52:05;;;;;;;16.83;14.02;;;;;;;;;;7332155;19;161927;-17
2021/12/21 09:54:37;;;;;;;17.48;14.23;;;;;;;;;;7331941;19;162488;-16
2021/12/21 09:57:10;;;;;;;14.57;13.07;;;;;;;;;;7332176;19;153955;-15
2021/12/21 09:59:41;;;;;;;16.17;13.55;;;;;;;;;;7332108;19;153672;-15
2021/12/21 10:02:13;;;;;;;14.48;12.48;;;;;;;;;;7331744;19;161899;-15
2021/12/21 10:04:49;;;;;;;16.15;13.90;;;;;;;;;;7329848;19;162569;-14
2021/12/21 10:07:23;;;;;;;15.02;13.43;;;;;;;;;;7332056;19;153978;-15
2021/12/21 10:10:07;;;;;;;14.45;12.95;;;;;;;;;;7331888;19;153642;-15
2021/12/21 10:12:41;;;;;;;14.73;13.23;;;;;;;;;;7331583;19;162087;-15
2021/12/21 10:15:15;;;;;;;15.20;13.25;;;;;;;;;;7330937;19;162621;-15
2021/12/21 10:17:58;;;;;;;15.30;12.52;;;;;;;;;;7331660;19;153958;-16
2021/12/21 10:20:35;;;;;;;14.52;12.07;;;;;;;;;;7331194;19;153533;-14
2021/12/21 10:23:19;;;;;;;14.05;12.57;;;;;;;;;;7331010;19;162091;-16
2021/12/21 10:25:51;;;;;;;15.35;12.55;;;;;;;;;;7331152;19;161947;-15
2021/12/21 10:28:35;;;;;;;13.38;11.55;;;;;;;;;;7330599;19;153875;-15
2021/12/21 10:31:09;;;;;;;13.05;11.65;;;;;;;;;;7331336;19;153625;-15
2021/12/21 10:33:42;;;;;;;13.10;11.57;;;;;;;;;;7328440;19;161758;-15
2021/12/21 10:36:15;;;;;;;13.27;11.88;;;;;;;;;;7330802;19;163418;-21
2021/12/21 10:38:52;;;;;;;14.32;12.10;;;;;;;;;;7331309;19;153934;-15
2021/12/21 10:41:31;;;;;;;11.75;10.55;;;;;;;;;;7330031;19;153710;-16
2021/12/21 10:44:06;;;;;;;13.73;12.23;;;;;;;;;;7328810;19;161989;-14
2021/12/21 10:46:42;;;;;;;12.00;10.85;;;;;;;;;;7330518;19;162474;-14
2021/12/21 10:49:24;;;;;;;12.93;11.35;;;;;;;;;;7330946;19;153904;-15
2021/12/21 10:51:58;;;;;;;12.27;11.07;;;;;;;;;;7330730;19;153653;-20
2021/12/21 10:54:35;;;;;;;12.23;10.90;;;;;;;;;;7330117;19;162031;-14
2021/12/21 10:57:10;;;;;;;11.95;10.75;;;;;;;;;;7329378;19;162400;-14
2021/12/21 10:59:43;;;;;;;12.85;11.52;;;;;;;;;;7329444;19;153887;-15
2021/12/21 11:02:16;;;;;;;;;;;;;;;;;;7330862;19;153702;-20
2021/12/21 11:04:52;;;;;;;12.73;11.38;;;;;;;;;;7327766;19;162016;-14
2021/12/21 11:07:28;;;;;;;13.13;11.73;;;;;;;;;;7329601;19;162400;-15
2021/12/21 11:10:10;;;;;;;12.80;11.50;;;;;;;;;;7329177;19;154041;-14
2021/12/21 11:12:53;;;;;;;12.15;10.85;;;;;;;;;;7329135;19;153569;-15
2021/12/21 11:15:29;;;;;;;11.77;10.65;;;;;;;;;;7329588;19;161798;-14
2021/12/21 11:18:02;;;;;;;11.60;10.40;;;;;;;;;;7329769;19;162372;-14
2021/12/21 11:20:33;;;;;;;13.18;11.07;;;;;;;;;;7330084;19;154439;-15
2021/12/21 11:23:06;;;;;;;14.03;10.50;;;;;;;;;;7329877;19;153531;-15
2021/12/21 11:25:41;;;;;;;12.95;11.05;;;;;;;;;;7327636;19;162030;-15
2021/12/21 11:28:17;;;;;;;12.23;11.02;;;;;;;;;;7329182;19;162519;-14
2021/12/21 11:30:48;;;;;;;13.40;11.18;;;;;;;;;;7328377;19;154400;-14
2021/12/21 11:33:21;;;;;;;11.25;10.15;;;;;;;;;;7327350;19;153582;-14
2021/12/21 11:38:37;;;;;;;11.55;10.35;;;;;;;;;;7329004;19;162585;-15
2021/12/21 11:41:11;;;;;;;12.43;11.00;;;;;;;;;;7329585;19;153895;-16
2021/12/21 11:43:50;;;;;;;12.02;10.77;;;;;;;;;;7329529;19;153798;-16
2021/12/21 11:46:29;;;;;;;11.40;10.20;;;;;;;;;;7326753;19;162164;-14
2021/12/21 11:49:05;;;;;;;13.32;10.23;;;;;;;;;;7328574;19;162560;-15
2021/12/21 11:51:36;;;;;;;11.43;10.35;;;;;;;;;;7329443;19;154003;-15
2021/12/21 11:54:19;;;;;;;11.35;10.18;;;;;;;;;;7329126;19;153577;-15
2021/12/21 11:57:03;;;;;;;11.40;10.20;;;;;;;;;;7328679;19;161584;-15
2021/12/21 11:59:35;;;;;;;11.48;10.27;;;;;;;;;;7328635;19;162560;-15
2021/12/21 12:02:07;;;;;;;12.05;10.38;;;;;;;;;;7328967;19;153995;-15
2021/12/21 12:04:38;;;;;;;11.18;10.00;;;;;;;;;;7328416;19;153544;-15
2021/12/21 12:07:19;;;;;;;10.77;9.68;;;;;;;;;;7327046;19;162265;-15
2021/12/21 12:10:07;;;;;;;10.25;9.18;;;;;;;;;;7332299;19;163217;-16
2021/12/21 12:12:41;;;;;;;11.48;10.27;;;;;;;;;;7335649;19;154080;-16
2021/12/21 12:15:13;;;;;;;11.10;9.98;;;;;;;;;;7335503;19;153509;-14
2021/12/21 12:17:49;;;;;;;11.20;10.10;;;;;;;;;;7335016;19;162020;-14
2021/12/21 12:20:28;;;;;;;10.82;9.75;;;;;;;;;;7334872;19;162363;-15
2021/12/21 12:23:07;;;;;;;10.65;9.60;;;;;;;;;;7335213;19;153937;-15
2021/12/21 12:25:39;;;;;;;11.70;9.75;;;;;;;;;;7334010;19;153715;-14
2021/12/21 12:28:23;;;;;;;10.23;9.32;;;;;;;;;;7334654;19;161990;-15
2021/12/21 12:30:55;;;;;;;10.05;9.13;;;;;;;;;;7334608;19;162339;-15
2021/12/21 12:33:27;;;;;;;11.18;9.27;;;;;;;;;;7333367;19;153887;-15
2021/12/21 12:36:05;;;;;;;9.95;9.05;;;;;;;;;;7334988;19;153521;-14
2021/12/21 12:38:47;;;;;;;10.00;9.00;;;;;;;;;;7334601;19;161888;-15
2021/12/21 12:41:18;;;;;;;9.45;8.55;;;;;;;;;;7334548;19;162177;-15
2021/12/21 12:43:52;;;;;;;10.35;9.20;;;;;;;;;;7334851;19;154137;-14
2021/12/21 12:46:30;;;;;;;9.63;8.73;;;;;;;;;;7332923;19;153262;-15
2021/12/21 12:49:02;;;;;;;8.77;7.97;;;;;;;;;;7333814;19;161975;-16
2021/12/21 12:51:36;;;;;;;9.07;8.25;;;;;;;;;;7333587;19;162733;-15
2021/12/21 12:54:19;;;;;;;9.45;8.63;;;;;;;;;;7334063;19;154032;-15
2021/12/21 12:56:51;;;;;;;9.45;8.52;;;;;;;;;;7333917;19;153377;-16
2021/12/21 12:59:25;;;;;;;9.05;8.25;;;;;;;;;;7333666;19;162074;-15
2021/12/21 13:02:01;;;;;;;10.02;8.93;;;;;;;;;;7333522;19;162712;-16
2021/12/21 13:04:33;;;;;;;8.65;7.95;;;;;;;;;;7334079;19;153932;-15
2021/12/21 13:07:07;;;;;;;9.35;8.45;;;;;;;;;;7331986;19;153493;-16
2021/12/21 13:09:38;;;;;;;8.13;7.38;;;;;;;;;;7333342;19;161777;-16
2021/12/21 13:12:13;;;;;;;8.52;7.80;;;;;;;;;;7333346;19;162738;-16
2021/12/21 13:14:55;;;;;;;9.32;8.35;;;;;;;;;;7333706;19;154018;-16
2021/12/21 13:17:27;;;;;;;8.85;7.95;;;;;;;;;;7333294;19;153946;-30
2021/12/21 13:19:58;;;;;;;8.38;7.57;;;;;;;;;;7332781;19;161861;-16
2021/12/21 13:22:30;;;;;;;8.27;7.47;;;;;;;;;;7332785;19;162363;-16
2021/12/21 13:25:03;;;;;;;9.20;8.30;;;;;;;;;;7332259;19;154010;-14
2021/12/21 13:27:35;;;;;;;8.57;7.75;;;;;;;;;;7330607;19;153522;-15
2021/12/21 13:30:10;;;;;;;7.90;7.18;;;;;;;;;;7332504;19;161741;-15
2021/12/21 13:32:42;;;;;;;8.77;7.90;;;;;;;;;;7331479;19;162349;-14
2021/12/21 13:35:18;;;;;;;8.35;7.60;;;;;;;;;;7330993;19;155551;-15
2021/12/21 13:37:50;;;;;;;8.35;7.60;;;;;;;;;;7333617;19;153748;-15
2021/12/21 13:40:23;;;;;;;8.32;7.53;;;;;;;;;;7332403;19;161822;-15
2021/12/21 13:42:55;;;;;;;8.02;7.22;;;;;;;;;;7332338;19;162393;-15
2021/12/21 13:45:29;;;;;;;7.40;6.68;;;;;;;;;;7332729;19;154437;-14
2021/12/21 13:48:01;;;;;;;8.27;7.47;;;;;;;;;;7330377;19;153548;-14
2021/12/21 13:50:32;;;;;;;8.10;7.35;;;;;;;;;;7332607;19;161831;-15
2021/12/21 13:53:04;;;;;;;8.90;8.10;;;;;;;;;;7331811;19;162445;-14
2021/12/21 13:55:40;;;;;;;8.48;7.68;;;;;;;;;;7332988;19;153942;-17
2021/12/21 13:58:13;;;;;;;7.97;7.15;;;;;;;;;;7332550;19;153517;-21
2021/12/21 14:00:51;;;;;;;;;;;;;;;;;;7331399;19;161852;-18
2021/12/21 14:03:32;;;;;;;8.43;6.97;;;;;;;;;;7334850;19;162895;-15
2021/12/21 14:06:09;;;;;;;8.00;7.30;;;;;;;;;;7336472;19;154376;-15
2021/12/21 14:08:44;;;;;;;8.20;7.40;;;;;;;;;;7333226;19;153517;-15
2021/12/21 14:11:15;;;;;;;7.78;6.78;;;;;;;;;;7333648;19;161755;-14
2021/12/21 14:13:49;;;;;;;7.93;7.20;;;;;;;;;;7331977;19;162336;-15
2021/12/21 14:16:28;;;;;;;7.38;6.65;;;;;;;;;;7332272;19;153981;-15
2021/12/21 14:19:02;;;;;;;7.93;7.13;;;;;;;;;;7334856;19;153571;-14
2021/12/21 14:21:36;;;;;;;7.30;6.70;;;;;;;;;;7335931;19;161754;-15
2021/12/21 14:24:10;;;;;;;7.43;6.72;;;;;;;;;;7332011;19;162373;-14
2021/12/21 14:26:48;;;;;;;7.90;7.10;;;;;;;;;;7331397;19;154116;-14
2021/12/21 14:29:22;;;;;;;7.15;6.45;;;;;;;;;;7331773;19;153533;-15
2021/12/21 14:32:02;;;;;;;7.35;6.63;;;;;;;;;;7328496;19;161832;-14
2021/12/21 14:34:36;;;;;;;7.20;6.60;;;;;;;;;;7331669;19;162324;-15
2021/12/21 14:37:10;;;;;;;6.70;6.10;;;;;;;;;;7331859;19;153989;-14
2021/12/21 14:39:46;;;;;;;7.43;6.53;;;;;;;;;;7330352;19;153537;-15
2021/12/21 14:42:19;;;;;;;7.82;7.13;;;;;;;;;;7331243;19;162044;-15
2021/12/21 14:44:53;;;;;;;7.60;6.90;;;;;;;;;;7331251;19;162797;-15
2021/12/21 14:47:29;;;;;;;7.05;6.43;;;;;;;;;;7330390;19;153976;-15
2021/12/21 14:50:06;;;;;;;6.65;6.05;;;;;;;;;;7331559;19;153499;-14
2021/12/21 14:52:45;;;;;;;7.07;6.47;;;;;;;;;;7332935;19;161908;-14
2021/12/21 14:55:22;;;;;;;7.53;6.82;;;;;;;;;;7331848;19;162332;-14
2021/12/21 14:57:59;;;;;;;7.13;6.43;;;;;;;;;;7333111;19;154100;-16
2021/12/21 15:00:34;;;;;;;7.03;6.32;;;;;;;;;;7330216;19;153472;-15
2021/12/21 15:03:11;;;;;;;7.22;6.53;;;;;;;;;;7333845;19;161939;-14
2021/12/21 15:05:44;;;;;;;7.20;6.60;;;;;;;;;;7330665;19;162417;-15
2021/12/21 15:08:17;;;;;;;6.68;6.07;;;;;;;;;;7328767;19;154219;-15
2021/12/21 15:10:50;;;;;;;6.20;5.63;;;;;;;;;;7330531;19;153489;-14
2021/12/21 15:13:21;;;;;;;;;;;;;;;;;;7330839;19;161834;-14
2021/12/21 15:15:53;;;;;;;6.03;5.53;;;;;;;;;;7330206;19;162830;-14
2021/12/21 15:18:32;;;;;;;6.40;5.90;;;;;;;;;;7330473;19;154046;-15
2021/12/21 15:21:04;;;;;;;6.10;5.60;;;;;;;;;;7330333;19;153665;-15
2021/12/21 15:23:35;;;;;;;6.63;5.95;;;;;;;;;;7329850;19;161964;-15
2021/12/21 15:26:06;;;;;;;6.75;6.13;;;;;;;;;;7329960;19;162538;-14
2021/12/21 15:28:38;;;;;;;6.25;5.70;;;;;;;;;;7328063;19;154011;-14
2021/12/21 15:31:09;;;;;;;6.05;5.45;;;;;;;;;;7329830;19;153607;-14
2021/12/21 15:33:43;;;;;;;6.55;5.95;;;;;;;;;;7327245;19;161909;-15
2021/12/21 15:36:14;;;;;;;6.55;6.00;;;;;;;;;;7329462;19;162305;-15
2021/12/21 15:38:46;;;;;;;6.40;5.80;;;;;;;;;;7329677;19;154215;-15
2021/12/21 15:41:18;;;;;;;;;;;;;;;;;;7329929;19;153515;-15
2021/12/21 15:43:50;;;;;;;6.13;5.53;;;;;;;;;;7330800;19;161807;-16
2021/12/21 15:46:22;;;;;;;6.28;5.78;;;;;;;;;;7335658;19;162434;-15
2021/12/21 15:48:56;;;;;;;6.22;5.63;;;;;;;;;;7336802;19;154308;-14
2021/12/21 15:51:30;;;;;;;6.43;5.93;;;;;;;;;;7336315;19;153656;-15
2021/12/21 15:54:03;;;;;;;6.32;5.72;;;;;;;;;;7340337;19;162017;-14
2021/12/21 15:56:34;;;;;;;;;;;;;;;;;;7336248;19;162454;-14
2021/12/21 15:59:08;;;;;;;6.20;5.60;;;;;;;;;;7336039;19;154113;-16
2021/12/21 16:01:42;;;;;;;5.85;5.35;;;;;;;;;;7339094;19;153522;-14
2021/12/21 16:04:19;;;;;;;6.35;5.50;;;;;;;;;;7336030;19;161888;-15
2021/12/21 16:06:50;;;;;;;5.80;5.30;;;;;;;;;;7335176;19;162412;-15
2021/12/21 16:09:25;;;;;;;5.65;5.15;;;;;;;;;;7333616;19;154038;-15
2021/12/21 16:11:57;;;;;;;5.68;5.18;;;;;;;;;;7338602;19;153612;-15
2021/12/21 16:14:28;;;;;;;5.15;4.75;;;;;;;;;;7335169;19;161803;-13
2021/12/21 16:17:02;;;;;;;5.38;4.93;;;;;;;;;;7335053;19;162332;-14
2021/12/21 16:19:37;;;;;;;5.25;4.50;;;;;;;;;;7335602;19;154315;-15
2021/12/21 16:22:08;;;;;;;6.45;5.70;;;;;;;;;;7335405;19;153515;-15
2021/12/21 16:24:42;;;;;;;5.32;4.82;;;;;;;;;;7336599;19;163354;-15
2021/12/21 16:27:17;;;;;;;5.60;5.10;;;;;;;;;;7334639;19;162564;-13
2021/12/21 16:29:53;;;;;;;4.97;4.57;;;;;;;;;;7332755;19;154160;-14
2021/12/21 16:32:28;;;;;;;5.30;4.80;;;;;;;;;;7333950;19;153773;-14
2021/12/21 16:35:04;;;;;;;5.13;4.72;;;;;;;;;;7333201;19;162655;-14
2021/12/21 16:37:35;;;;;;;5.55;5.05;;;;;;;;;;7334376;19;162345;-14
2021/12/21 16:40:08;;;;;;;5.53;5.07;;;;;;;;;;7334808;19;153954;-14
2021/12/21 16:42:40;;;;;;;4.80;4.40;;;;;;;;;;7334499;19;153718;-14
2021/12/21 16:45:12;;;;;;;5.13;4.72;;;;;;;;;;7334154;19;161697;-15
2021/12/21 16:47:44;;;;;;;7.90;4.93;;;;;;;;;;7334299;19;162649;-14
2021/12/21 16:50:20;;;;;;;5.22;4.82;;;;;;;;;;7331878;19;154157;-16
2021/12/21 16:52:54;;;;;;;5.28;4.88;;;;;;;;;;7334233;19;153513;-14
2021/12/21 16:55:26;;;;;;;5.35;4.82;;;;;;;;;;7332743;19;161944;-15
2021/12/21 16:57:57;;;;;;;4.45;4.05;;;;;;;;;;7333536;19;162357;-15
2021/12/21 17:00:31;;;;;;;4.95;4.55;;;;;;;;;;7334069;19;154035;-15
2021/12/21 17:03:05;;;;;;;5.35;4.75;;;;;;;;;;7334016;19;153535;-14
2021/12/21 17:05:42;;;;;;;4.90;4.50;;;;;;;;;;7333455;19;161807;-14
2021/12/21 17:08:16;;;;;;;4.72;4.32;;;;;;;;;;7333268;19;162344;-15
2021/12/21 17:10:50;;;;;;;5.22;4.72;;;;;;;;;;7333769;19;154025;-14
2021/12/21 17:13:24;;;;;;;4.68;4.32;;;;;;;;;;7333897;19;153536;-13
2021/12/21 17:15:58;;;;;;;4.97;4.50;;;;;;;;;;7333174;19;161793;-13
2021/12/21 17:18:34;;;;;;;4.80;4.40;;;;;;;;;;7332989;19;162614;-13
2021/12/21 17:21:18;;;;;;;5.10;4.70;;;;;;;;;;7332406;19;154098;-13
2021/12/21 17:23:50;;;;;;;4.40;4.10;;;;;;;;;;7333152;19;153513;-13
2021/12/21 17:26:26;;;;;;;4.63;4.22;;;;;;;;;;7332467;19;161982;-13
2021/12/21 17:28:58;;;;;;;5.05;3.85;;;;;;;;;;7332023;19;162369;-14
2021/12/21 17:31:32;;;;;;;4.22;3.92;;;;;;;;;;7333090;19;153940;-15
2021/12/21 17:34:06;;;;;;;4.63;4.22;;;;;;;;;;7330508;19;153581;-14
2021/12/21 17:36:42;;;;;;;4.63;4.32;;;;;;;;;;7336259;19;161893;-20
2021/12/21 17:39:14;;;;;;;4.30;4.00;;;;;;;;;;7337163;19;162358;-14
2021/12/21 17:41:45;;;;;;;4.15;3.85;;;;;;;;;;7332978;19;153939;-14
2021/12/21 17:44:19;;;;;;;4.95;4.50;;;;;;;;;;7331685;19;153607;-13
2021/12/21 17:46:50;;;;;;;4.35;3.97;;;;;;;;;;7331455;19;161888;-14
2021/12/21 17:49:22;;;;;;;4.25;3.95;;;;;;;;;;7331265;19;162605;-15
2021/12/21 17:51:56;;;;;;;4.97;3.95;;;;;;;;;;7332626;19;154099;-16
2021/12/21 17:54:28;;;;;;;3.90;3.45;;;;;;;;;;7336363;19;153796;-16
2021/12/21 17:57:02;;;;;;;4.47;4.07;;;;;;;;;;7332075;19;161782;-15
2021/12/21 17:59:33;;;;;;;7.10;4.50;;;;;;;;;;7330990;19;162376;-15
2021/12/21 18:02:07;;;;;;;4.10;3.70;;;;;;;;;;7335206;19;154079;-15
2021/12/21 18:04:40;;;;;;;4.28;3.88;;;;;;;;;;7332438;19;153932;-16
2021/12/21 18:07:15;;;;;;;4.22;3.88;;;;;;;;;;7329542;19;161904;-13
2021/12/21 18:09:46;;;;;;;4.22;3.90;;;;;;;;;;7334588;19;162369;-15
2021/12/21 18:12:20;;;;;;;3.90;3.60;;;;;;;;;;7334607;19;153855;-15
2021/12/21 18:14:56;;;;;;;4.20;3.88;;;;;;;;;;7336646;19;153945;-14
2021/12/21 18:17:29;;;;;;;5.18;3.80;;;;;;;;;;7331525;19;161854;-15
2021/12/21 18:20:00;;;;;;;;;;;;;;;;;;7332102;19;162382;-14
2021/12/21 18:22:34;;;;;;;3.55;3.30;;;;;;;;;;7331187;19;154202;-15
2021/12/21 18:25:06;;;;;;;3.85;3.55;;;;;;;;;;7331495;19;154212;-14
2021/12/21 18:27:41;;;;;;;3.97;3.58;;;;;;;;;;7331251;19;162026;-14
2021/12/21 18:30:13;;;;;;;4.10;3.80;;;;;;;;;;7330021;19;162373;-15
2021/12/21 18:32:44;;;;;;;3.80;3.50;;;;;;;;;;7330175;19;154465;-14
2021/12/21 18:35:16;;;;;;;4.35;4.05;;;;;;;;;;7331692;19;153625;-13
2021/12/21 18:37:51;;;;;;;4.10;3.80;;;;;;;;;;7331242;19;161921;-13
2021/12/21 18:40:26;;;;;;;3.75;3.45;;;;;;;;;;7331009;19;162653;-14
2021/12/21 18:42:59;;;;;;;4.20;3.90;;;;;;;;;;7331358;19;154291;-13
2021/12/21 18:45:31;;;;;;;3.90;3.60;;;;;;;;;;7331112;19;153520;-13
2021/12/21 18:48:02;;;;;;;3.90;3.60;;;;;;;;;;7330854;19;161792;-13
2021/12/21 18:50:34;;;;;;;3.38;3.17;;;;;;;;;;7329062;19;162615;-13
2021/12/21 18:53:08;;;;;;;4.47;4.07;;;;;;;;;;7330966;19;153997;-13
2021/12/21 18:55:40;;;;;;;4.22;3.72;;;;;;;;;;7330814;19;153600;-13
2021/12/21 18:58:12;;;;;;;3.90;3.70;;;;;;;;;;7330348;19;161980;-13
2021/12/21 19:00:48;;;;;;;3.85;3.55;;;;;;;;;;7330226;19;162347;-13
2021/12/21 19:03:25;;;;;;;3.45;3.25;;;;;;;;;;7330805;19;153930;-13
2021/12/21 19:05:57;;;;;;;4.07;3.50;;;;;;;;;;7330602;19;153766;-13
2021/12/21 19:08:31;;;;;;;3.67;3.38;;;;;;;;;;7330008;19;161830;-13
2021/12/21 19:11:03;;;;;;;3.50;3.30;;;;;;;;;;7328120;19;162350;-13
2021/12/21 19:13:34;;;;;;;4.18;3.88;;;;;;;;;;7330320;19;154103;-12
2021/12/21 19:16:06;;;;;;;3.72;3.53;;;;;;;;;;7330160;19;153874;-14
2021/12/21 19:18:37;;;;;;;3.70;3.40;;;;;;;;;;7329312;19;161778;-14
2021/12/21 19:21:09;;;;;;;3.65;3.35;;;;;;;;;;7329637;19;162568;-13
2021/12/21 19:23:42;;;;;;;3.67;3.45;;;;;;;;;;7329975;19;154085;-13
2021/12/21 19:26:14;;;;;;;3.85;3.55;;;;;;;;;;7329102;19;153468;-14
2021/12/21 19:28:45;;;;;;;3.88;3.58;;;;;;;;;;7329620;19;161867;-14
2021/12/21 19:31:17;;;;;;;4.10;3.70;;;;;;;;;;7327523;19;162370;-14
2021/12/21 19:33:48;;;;;;;3.72;3.25;;;;;;;;;;7327270;19;153979;-13
2021/12/21 19:36:19;;;;;;;3.65;3.38;;;;;;;;;;7329827;19;154079;-18
2021/12/21 19:38:53;;;;;;;3.60;3.30;;;;;;;;;;7332851;19;162198;-13
2021/12/21 19:41:27;;;;;;;3.20;3.00;;;;;;;;;;7331881;19;162510;-14
2021/12/21 19:43:59;;;;;;;3.72;3.42;;;;;;;;;;7330932;19;154353;-22
2021/12/21 19:46:32;;;;;;;3.60;3.30;;;;;;;;;;7328867;19;153817;-25
2021/12/21 19:49:06;;;;;;;3.33;3.08;;;;;;;;;;7331813;19;162016;-14
2021/12/21 19:51:44;;;;;;;3.95;3.53;;;;;;;;;;7326958;19;162342;-15
2021/12/21 19:54:20;;;;;;;3.60;3.30;;;;;;;;;;7332398;19;153984;-15
2021/12/21 19:56:55;;;;;;;3.53;3.22;;;;;;;;;;7329072;19;153735;-14
2021/12/21 19:59:32;;;;;;;4.30;3.90;;;;;;;;;;7328653;19;162418;-14
2021/12/21 20:02:06;;;;;;;3.35;3.05;;;;;;;;;;7330595;19;162510;-14
2021/12/21 20:04:42;;;;;;;4.05;3.75;;;;;;;;;;7333298;19;154367;-14
2021/12/21 20:07:14;;;;;;;4.15;3.78;;;;;;;;;;7329898;19;153601;-13
2021/12/21 20:09:50;;;;;;;3.50;3.28;;;;;;;;;;7330289;19;161848;-14
2021/12/21 20:12:28;;;;;;;3.90;3.60;;;;;;;;;;7328600;19;162498;-14
2021/12/21 20:15:01;;;;;;;3.58;3.28;;;;;;;;;;7328769;19;154059;-14
2021/12/21 20:17:39;;;;;;;6.07;5.50;;;;;;;;;;7328865;19;153598;-14
2021/12/21 20:20:17;;;;;;;7.45;6.75;;;;;;;;;;7332326;19;161862;-14
2021/12/21 20:22:54;;;;;;;5.43;4.93;;;;;;;;;;7327846;19;162356;-14
2021/12/21 20:25:35;;;;;;;5.10;4.45;;;;;;;;;;7327492;19;154227;-14
2021/12/21 20:28:09;;;;;;;9.00;8.30;;;;;;;;;;7329200;19;153480;-14
2021/12/21 20:30:46;;;;;;;7.75;6.95;;;;;;;;;;7329955;19;162083;-14
2021/12/21 20:33:17;;;;;;;8.70;7.85;;;;;;;;;;7336153;19;162299;-14
2021/12/21 20:35:50;;;;;;;9.73;8.73;;;;;;;;;;7333759;19;154134;-14
2021/12/21 20:38:22;;;;;;;9.00;8.18;;;;;;;;;;7332482;19;153512;-13
2021/12/21 20:40:57;;;;;;;8.10;7.30;;;;;;;;;;7333319;19;161769;-13
2021/12/21 20:43:29;;;;;;;7.93;7.30;;;;;;;;;;7333357;19;162476;-14
2021/12/21 20:46:00;;;;;;;8.52;7.72;;;;;;;;;;7333466;19;154011;-14
2021/12/21 20:48:31;;;;;;;8.50;7.47;;;;;;;;;;7333433;19;153435;-14
2021/12/21 20:51:02;;;;;;;8.05;7.38;;;;;;;;;;7332406;19;162143;-14
2021/12/21 20:53:34;;;;;;;8.38;7.68;;;;;;;;;;7332832;19;162380;-14
2021/12/21 20:56:08;;;;;;;7.85;7.05;;;;;;;;;;7335213;19;154087;-15
2021/12/21 20:58:40;;;;;;;7.78;7.03;;;;;;;;;;7336455;19;153482;-14
2021/12/21 21:01:12;;;;;;;8.77;7.85;;;;;;;;;;7335445;19;161998;-15
2021/12/21 21:03:43;;;;;;;7.75;6.97;;;;;;;;;;7334652;19;162283;-14
2021/12/21 21:06:15;;;;;;;7.75;6.78;;;;;;;;;;7336379;19;153975;-14
2021/12/21 21:08:46;;;;;;;7.20;6.60;;;;;;;;;;7335250;19;153730;-13
2021/12/21 21:11:20;;;;;;;7.35;6.63;;;;;;;;;;7335003;19;161919;-13
2021/12/21 21:13:52;;;;;;;6.97;6.38;;;;;;;;;;7335377;19;162338;-13
2021/12/21 21:16:23;;;;;;;7.20;6.53;;;;;;;;;;7334425;19;153979;-15
2021/12/21 21:18:54;;;;;;;6.60;5.90;;;;;;;;;;7335585;19;153716;-13
2021/12/21 21:21:25;;;;;;;6.95;6.25;;;;;;;;;;7335942;19;161831;-14
2021/12/21 21:23:57;;;;;;;7.00;6.40;;;;;;;;;;7332376;19;162365;-14
2021/12/21 21:26:32;;;;;;;7.07;6.38;;;;;;;;;;7332485;19;153976;-14
2021/12/21 21:29:06;;;;;;;6.57;5.97;;;;;;;;;;7336075;19;154124;-14
2021/12/21 21:31:44;;;;;;;6.93;6.32;;;;;;;;;;7331780;19;161901;-14
2021/12/21 21:34:18;;;;;;;6.78;6.28;;;;;;;;;;7334919;19;162474;-14
2021/12/21 21:36:50;;;;;;;6.70;6.07;;;;;;;;;;7336034;19;153758;-15
2021/12/21 21:39:26;;;;;;;6.90;6.30;;;;;;;;;;7335718;19;153813;-14
2021/12/21 21:42:03;;;;;;;6.57;6.07;;;;;;;;;;7333954;19;162046;-14
2021/12/21 21:44:37;;;;;;;6.55;6.05;;;;;;;;;;7335838;19;162424;-15
2021/12/21 21:47:09;;;;;;;7.07;6.47;;;;;;;;;;7334699;19;154070;-13
2021/12/21 21:49:40;;;;;;;6.45;5.88;;;;;;;;;;7334592;19;153550;-15
2021/12/21 21:52:17;;;;;;;6.47;5.97;;;;;;;;;;7333281;19;162649;-15
2021/12/21 21:54:51;;;;;;;6.28;5.75;;;;;;;;;;7334007;19;162373;-15
2021/12/21 21:57:27;;;;;;;6.45;5.95;;;;;;;;;;7334376;19;154148;-15
2021/12/21 21:59:58;;;;;;;6.70;6.10;;;;;;;;;;7336115;19;153853;-19
2021/12/21 22:02:32;;;;;;;6.82;6.22;;;;;;;;;;7334222;19;162144;-15
2021/12/21 22:05:06;;;;;;;5.90;5.40;;;;;;;;;;7334654;19;162367;-14
2021/12/21 22:07:39;;;;;;;5.82;5.35;;;;;;;;;;7334019;19;154032;-15